createdAt,value
2018-04-23T00:00:17.701Z,41.08
2018-04-23T00:00:49.350Z,39.97
2018-04-23T00:01:20.993Z,40.83
2018-04-23T00:01:52.655Z,47.62
2018-04-23T00:02:24.294Z,42.40
2018-04-23T00:02:55.937Z,41.97
2018-04-23T00:03:27.557Z,47.33
2018-04-23T00:03:59.263Z,48.35
2018-04-23T00:04:30.885Z,43.92
2018-04-23T00:05:02.577Z,42.70
2018-04-23T00:05:34.217Z,51.25
2018-04-23T00:06:05.839Z,48.17
2018-04-23T00:06:37.498Z,42.85
2018-04-23T00:07:09.113Z,44.13
2018-04-23T00:07:40.766Z,44.03
2018-04-23T00:08:12.399Z,42.05
2018-04-23T00:08:44.008Z,47.05
2018-04-23T00:09:15.643Z,46.13
2018-04-23T00:09:47.286Z,45.55
2018-04-23T00:10:18.925Z,40.38
2018-04-23T00:10:50.540Z,47.90
2018-04-23T00:11:22.190Z,50.58
2018-04-23T00:11:53.845Z,49.10
2018-04-23T00:12:25.479Z,45.95
2018-04-23T00:12:57.148Z,43.08
2018-04-23T00:13:28.789Z,46.80
2018-04-23T00:14:00.393Z,46.83
2018-04-23T00:14:32.335Z,42.40
2018-04-23T00:15:03.965Z,44.78
2018-04-23T00:15:35.618Z,41.88
2018-04-23T00:16:07.249Z,43.87
2018-04-23T00:16:38.907Z,49.85
2018-04-23T00:17:10.538Z,44.15
2018-04-23T00:17:42.194Z,47.15
2018-04-23T00:18:13.832Z,48.28
2018-04-23T00:18:45.479Z,51.60
2018-04-23T00:19:17.126Z,44.53
2018-04-23T00:19:48.737Z,52.20
2018-04-23T00:20:20.376Z,46.85
2018-04-23T00:20:51.991Z,43.10
2018-04-23T00:21:23.624Z,54.20
2018-04-23T00:21:55.267Z,51.72
2018-04-23T00:22:26.910Z,53.10
2018-04-23T00:22:58.545Z,56.10
2018-04-23T00:23:30.183Z,48.22
2018-04-23T00:24:01.842Z,44.92
2018-04-23T00:24:33.451Z,47.00
2018-04-23T00:25:05.072Z,43.15
2018-04-23T00:25:36.742Z,50.78
2018-04-23T00:26:08.393Z,46.80
2018-04-23T00:26:40.054Z,47.15
2018-04-23T00:27:11.664Z,43.35
2018-04-23T00:27:43.333Z,42.95
2018-04-23T00:28:14.965Z,52.47
2018-04-23T00:28:47.016Z,45.47
2018-04-23T00:29:18.660Z,47.38
2018-04-23T00:29:50.284Z,44.78
2018-04-23T00:30:21.900Z,46.08
2018-04-23T00:30:53.527Z,43.13
2018-04-23T00:31:25.143Z,52.55
2018-04-23T00:31:56.783Z,41.75
2018-04-23T00:32:28.431Z,47.13
2018-04-23T00:33:00.067Z,48.42
2018-04-23T00:33:31.721Z,43.70
2018-04-23T00:34:03.371Z,47.22
2018-04-23T00:34:35.013Z,48.28
2018-04-23T00:35:06.653Z,46.63
2018-04-23T00:35:38.283Z,50.78
2018-04-23T00:36:09.913Z,47.78
2018-04-23T00:36:41.533Z,45.12
2018-04-23T00:37:13.159Z,44.05
2018-04-23T00:37:44.773Z,46.65
2018-04-23T00:38:16.398Z,55.70
2018-04-23T00:38:48.042Z,47.03
2018-04-23T00:39:19.681Z,41.85
2018-04-23T00:39:51.276Z,49.90
2018-04-23T00:40:22.913Z,44.25
2018-04-23T00:40:54.550Z,51.08
2018-04-23T00:41:26.197Z,42.75
2018-04-23T00:41:57.843Z,39.88
2018-04-23T00:42:29.464Z,41.60
2018-04-23T00:43:01.094Z,46.40
2018-04-23T00:43:32.731Z,44.45
2018-04-23T00:44:04.379Z,49.00
2018-04-23T00:44:36.026Z,45.23
2018-04-23T00:45:07.669Z,47.55
2018-04-23T00:45:39.280Z,51.13
2018-04-23T00:46:10.922Z,46.03
2018-04-23T00:46:42.553Z,47.97
2018-04-23T00:47:14.177Z,47.13
2018-04-23T00:47:45.800Z,54.50
2018-04-23T00:48:17.429Z,47.67
2018-04-23T00:48:49.074Z,45.90
2018-04-23T00:49:20.741Z,39.08
2018-04-23T00:49:52.427Z,46.85
2018-04-23T00:50:24.079Z,48.17
2018-04-23T00:50:55.714Z,49.03
2018-04-23T00:51:27.365Z,47.95
2018-04-23T00:51:59.031Z,55.12
2018-04-23T00:52:30.680Z,51.40
2018-04-23T00:53:20.949Z,52.45
2018-04-23T00:53:52.539Z,47.10
2018-04-23T00:54:24.181Z,45.47
2018-04-23T00:54:55.842Z,49.03
2018-04-23T00:55:27.457Z,49.78
2018-04-23T00:55:59.095Z,49.88
2018-04-23T00:56:30.707Z,51.70
2018-04-23T00:57:02.325Z,39.95
2018-04-23T00:57:33.957Z,40.65
2018-04-23T00:58:05.601Z,46.08
2018-04-23T00:58:37.248Z,43.33
2018-04-23T00:59:08.934Z,41.85
2018-04-23T00:59:40.629Z,44.50
2018-04-23T01:00:12.285Z,46.63
2018-04-23T01:00:43.951Z,45.17
2018-04-23T01:01:15.581Z,50.20
2018-04-23T01:01:47.203Z,48.45
2018-04-23T01:02:18.856Z,48.50
2018-04-23T01:02:50.480Z,41.45
2018-04-23T01:03:22.105Z,43.20
2018-04-23T01:03:53.733Z,53.47
2018-04-23T01:04:25.360Z,41.70
2018-04-23T01:04:57.000Z,44.17
2018-04-23T01:05:28.657Z,45.03
2018-04-23T01:06:00.291Z,48.80
2018-04-23T01:06:31.912Z,47.28
2018-04-23T01:07:03.563Z,42.92
2018-04-23T01:07:35.183Z,43.45
2018-04-23T01:08:06.815Z,41.05
2018-04-23T01:08:38.445Z,50.05
2018-04-23T01:09:10.070Z,41.45
2018-04-23T01:09:41.716Z,53.90
2018-04-23T01:10:13.369Z,50.30
2018-04-23T01:10:45.024Z,45.20
2018-04-23T01:11:16.639Z,38.38
2018-04-23T01:11:48.264Z,45.90
2018-04-23T01:12:19.931Z,53.58
2018-04-23T01:12:51.587Z,43.97
2018-04-23T01:13:23.209Z,45.65
2018-04-23T01:13:54.811Z,38.53
2018-04-23T01:14:26.415Z,52.55
2018-04-23T01:14:58.069Z,37.83
2018-04-23T01:15:29.711Z,43.97
2018-04-23T01:16:01.377Z,44.83
2018-04-23T01:16:32.991Z,48.17
2018-04-23T01:17:04.641Z,43.85
2018-04-23T01:17:36.247Z,45.08
2018-04-23T01:18:07.885Z,43.60
2018-04-23T01:18:39.523Z,41.85
2018-04-23T01:19:11.154Z,46.20
2018-04-23T01:19:42.882Z,46.88
2018-04-23T01:20:14.511Z,43.83
2018-04-23T01:20:46.128Z,39.63
2018-04-23T01:21:17.763Z,40.33
2018-04-23T01:21:49.397Z,41.75
2018-04-23T01:22:21.040Z,45.33
2018-04-23T01:22:52.680Z,45.78
2018-04-23T01:23:24.316Z,43.63
2018-04-23T01:23:55.931Z,50.28
2018-04-23T01:24:27.555Z,55.03
2018-04-23T01:24:59.191Z,50.90
2018-04-23T01:25:30.808Z,50.08
2018-04-23T01:26:02.464Z,46.75
2018-04-23T01:26:34.080Z,50.03
2018-04-23T01:27:05.706Z,47.30
2018-04-23T01:27:37.318Z,45.95
2018-04-23T01:28:08.907Z,40.92
2018-04-23T01:28:40.551Z,40.70
2018-04-23T01:29:12.176Z,54.30
2018-04-23T01:29:43.788Z,55.00
2018-04-23T01:30:15.433Z,46.47
2018-04-23T01:30:47.039Z,46.85
2018-04-23T01:31:18.651Z,46.60
2018-04-23T01:31:50.295Z,42.80
2018-04-23T01:32:21.915Z,46.17
2018-04-23T01:32:53.555Z,42.80
2018-04-23T01:33:25.172Z,47.97
2018-04-23T01:33:56.799Z,42.90
2018-04-23T01:34:28.427Z,43.25
2018-04-23T01:35:00.045Z,47.20
2018-04-23T01:35:31.657Z,45.45
2018-04-23T01:36:03.300Z,42.50
2018-04-23T01:36:34.935Z,40.08
2018-04-23T01:37:06.565Z,42.25
2018-04-23T01:37:38.223Z,48.53
2018-04-23T01:38:09.868Z,43.70
2018-04-23T01:38:41.514Z,43.35
2018-04-23T01:39:13.123Z,33.42
2018-04-23T01:49:34.761Z,38.42
2018-04-23T01:50:06.401Z,41.78
2018-04-23T01:50:38.017Z,37.08
2018-04-23T01:51:09.645Z,38.78
2018-04-23T01:51:41.283Z,43.85
2018-04-23T01:52:13.724Z,45.12
2018-04-23T01:52:45.355Z,39.53
2018-04-23T01:53:16.992Z,33.90
2018-04-23T01:53:48.616Z,37.10
2018-04-23T01:54:20.243Z,38.20
2018-04-23T01:54:51.867Z,44.17
2018-04-23T01:55:24.239Z,36.25
2018-04-23T01:55:55.851Z,36.95
2018-04-23T01:56:27.481Z,40.30
2018-04-23T01:56:59.127Z,36.40
2018-04-23T01:57:30.740Z,38.22
2018-04-23T01:58:02.384Z,32.92
2018-04-23T01:58:33.995Z,39.15
2018-04-23T01:59:05.623Z,33.92
2018-04-23T01:59:37.255Z,30.70
2018-04-23T02:00:08.891Z,36.30
2018-04-23T02:00:40.507Z,35.80
2018-04-23T02:01:12.145Z,42.75
2018-04-23T02:01:43.780Z,35.60
2018-04-23T02:02:15.406Z,35.75
2018-04-23T02:02:47.095Z,30.27
2018-04-23T02:03:18.769Z,33.10
2018-04-23T02:03:50.397Z,33.90
2018-04-23T02:04:21.999Z,30.62
2018-04-23T02:04:53.632Z,33.30
2018-04-23T02:05:25.269Z,32.15
2018-04-23T02:05:56.879Z,32.97
2018-04-23T02:06:28.497Z,29.90
2018-04-23T02:07:00.135Z,32.85
2018-04-23T02:07:31.759Z,30.37
2018-04-23T02:08:03.406Z,27.37
2018-04-23T02:08:35.049Z,27.02
2018-04-23T02:09:06.675Z,21.37
2018-04-23T02:09:38.297Z,26.70
2018-04-23T02:10:09.935Z,25.40
2018-04-23T02:10:41.593Z,27.70
2018-04-23T02:11:13.232Z,28.67
2018-04-23T02:11:44.841Z,29.55
2018-04-23T02:12:16.449Z,25.95
2018-04-23T02:12:48.089Z,26.48
2018-04-23T02:13:19.727Z,25.83
2018-04-23T02:13:51.375Z,24.48
2018-04-23T02:14:23.003Z,27.27
2018-04-23T02:14:54.631Z,26.58
2018-04-23T02:15:26.245Z,25.70
2018-04-23T02:15:57.859Z,25.37
2018-04-23T02:16:29.493Z,21.52
2018-04-23T02:17:01.110Z,22.77
2018-04-23T02:17:32.729Z,23.98
2018-04-23T02:18:04.357Z,19.90
2018-04-23T02:18:35.958Z,29.73
2018-04-23T02:19:07.575Z,25.77
2018-04-23T02:19:39.205Z,19.65
2018-04-23T02:20:10.817Z,21.50
2018-04-23T02:20:42.443Z,25.92
2018-04-23T02:21:14.091Z,25.20
2018-04-23T02:21:45.727Z,26.15
2018-04-23T02:22:17.338Z,25.23
2018-04-23T02:22:48.962Z,22.35
2018-04-23T02:23:20.604Z,27.77
2018-04-23T02:23:52.247Z,21.87
2018-04-23T02:24:23.871Z,22.52
2018-04-23T02:24:55.501Z,16.90
2018-04-23T02:25:27.136Z,20.70
2018-04-23T02:25:58.813Z,22.85
2018-04-23T02:26:30.451Z,18.25
2018-04-23T02:27:02.077Z,19.20
2018-04-23T02:27:33.707Z,20.12
2018-04-23T02:28:05.355Z,16.12
2018-04-23T02:28:37.017Z,20.23
2018-04-23T02:29:08.647Z,18.35
2018-04-23T02:29:40.279Z,25.30
2018-04-23T02:30:11.884Z,19.40
2018-04-23T02:30:43.514Z,22.55
2018-04-23T02:31:15.123Z,18.85
2018-04-23T02:31:46.799Z,18.25
2018-04-23T02:32:18.413Z,16.67
2018-04-23T02:32:50.024Z,20.55
2018-04-23T02:33:21.635Z,20.17
2018-04-23T02:33:53.299Z,20.23
2018-04-23T02:34:24.926Z,21.15
2018-04-23T02:34:56.570Z,20.80
2018-04-23T02:35:28.201Z,20.65
2018-04-23T02:35:59.837Z,19.67
2018-04-23T02:36:31.469Z,18.73
2018-04-23T02:37:03.111Z,20.00
2018-04-23T02:37:34.742Z,19.60
2018-04-23T02:38:06.393Z,21.37
2018-04-23T02:38:38.031Z,19.37
2018-04-23T02:39:09.679Z,18.12
2018-04-23T02:39:41.327Z,18.73
2018-04-23T02:40:12.964Z,19.77
2018-04-23T02:40:44.603Z,19.48
2018-04-23T02:41:16.267Z,18.37
2018-04-23T02:41:47.890Z,20.88
2018-04-23T02:42:19.515Z,19.87
2018-04-23T02:42:51.157Z,17.60
2018-04-23T02:43:22.781Z,21.77
2018-04-23T02:43:54.406Z,19.30
2018-04-23T02:44:26.021Z,20.37
2018-04-23T02:44:57.665Z,21.20
2018-04-23T02:45:29.293Z,22.58
2018-04-23T02:46:00.923Z,18.83
2018-04-23T02:46:32.526Z,18.23
2018-04-23T02:47:04.155Z,20.00
2018-04-23T02:47:35.772Z,19.55
2018-04-23T02:48:07.415Z,22.73
2018-04-23T02:48:39.407Z,23.87
2018-04-23T02:49:11.017Z,23.48
2018-04-23T02:49:42.655Z,19.92
2018-04-23T02:50:14.272Z,17.10
2018-04-23T02:50:45.928Z,22.45
2018-04-23T02:51:17.554Z,20.45
2018-04-23T02:51:49.185Z,20.92
2018-04-23T02:52:20.814Z,21.75
2018-04-23T02:52:52.455Z,21.00
2018-04-23T02:53:24.096Z,22.73
2018-04-23T02:53:55.770Z,21.33
2018-04-23T02:54:27.383Z,23.30
2018-04-23T02:54:59.015Z,23.95
2018-04-23T02:55:30.645Z,22.77
2018-04-23T02:56:02.291Z,22.20
2018-04-23T02:56:33.905Z,19.40
2018-04-23T02:57:05.535Z,22.13
2018-04-23T02:57:37.177Z,21.30
2018-04-23T02:58:08.809Z,22.65
2018-04-23T02:58:40.446Z,25.50
2018-04-23T02:59:12.096Z,22.85
2018-04-23T02:59:43.739Z,22.55
2018-04-23T03:00:15.363Z,20.25
2018-04-23T03:00:46.988Z,19.92
2018-04-23T03:01:18.606Z,22.23
2018-04-23T03:01:50.247Z,22.37
2018-04-23T03:02:21.856Z,20.55
2018-04-23T03:02:53.492Z,18.90
2018-04-23T03:03:25.127Z,22.35
2018-04-23T03:03:56.805Z,27.20
2018-04-23T03:04:28.435Z,26.52
2018-04-23T03:05:00.070Z,22.55
2018-04-23T03:05:31.704Z,23.50
2018-04-23T03:06:03.367Z,21.77
2018-04-23T03:06:34.987Z,26.30
2018-04-23T03:07:06.613Z,21.65
2018-04-23T03:07:38.255Z,23.38
2018-04-23T03:08:09.861Z,22.62
2018-04-23T03:08:41.492Z,22.60
2018-04-23T03:09:13.103Z,24.25
2018-04-23T03:09:44.723Z,22.20
2018-04-23T03:10:16.347Z,21.27
2018-04-23T03:10:47.983Z,26.42
2018-04-23T03:11:19.615Z,24.10
2018-04-23T03:11:51.234Z,26.92
2018-04-23T03:12:22.867Z,25.98
2018-04-23T03:12:54.501Z,27.33
2018-04-23T03:13:26.123Z,31.83
2018-04-23T03:13:57.801Z,23.48
2018-04-23T03:14:29.405Z,29.17
2018-04-23T03:15:01.031Z,31.37
2018-04-23T03:15:32.672Z,27.15
2018-04-23T03:16:04.333Z,26.48
2018-04-23T03:16:35.988Z,27.62
2018-04-23T03:17:07.659Z,32.00
2018-04-23T03:17:39.299Z,29.42
2018-04-23T03:18:10.913Z,29.08
2018-04-23T03:18:42.577Z,28.17
2018-04-23T03:19:15.182Z,30.08
2018-04-23T03:19:46.831Z,25.77
2018-04-23T03:20:18.457Z,25.40
2018-04-23T03:20:50.090Z,30.58
2018-04-23T03:21:21.725Z,23.80
2018-04-23T03:21:53.354Z,28.38
2018-04-23T03:22:24.979Z,28.87
2018-04-23T03:22:56.609Z,29.35
2018-04-23T03:23:28.245Z,30.33
2018-04-23T03:23:59.871Z,30.12
2018-04-23T03:24:31.498Z,31.70
2018-04-23T03:25:03.199Z,29.80
2018-04-23T03:25:34.813Z,37.53
2018-04-23T03:26:06.443Z,30.17
2018-04-23T03:26:38.074Z,31.10
2018-04-23T03:27:09.691Z,29.02
2018-04-23T03:27:41.327Z,30.62
2018-04-23T03:28:12.943Z,35.33
2018-04-23T03:28:44.576Z,35.67
2018-04-23T03:29:16.207Z,30.15
2018-04-23T03:29:47.863Z,28.30
2018-04-23T03:30:19.501Z,34.38
2018-04-23T03:30:51.135Z,32.63
2018-04-23T03:31:22.783Z,37.13
2018-04-23T03:31:54.408Z,30.80
2018-04-23T03:32:26.060Z,31.75
2018-04-23T03:32:57.669Z,39.28
2018-04-23T03:33:29.293Z,36.25
2018-04-23T03:34:00.921Z,32.53
2018-04-23T03:34:32.536Z,26.75
2018-04-23T03:35:04.173Z,30.10
2018-04-23T03:35:35.785Z,34.40
2018-04-23T03:36:07.427Z,37.95
2018-04-23T03:36:39.056Z,34.35
2018-04-23T03:37:10.730Z,36.78
2018-04-23T03:37:42.323Z,38.65
2018-04-23T03:38:13.925Z,31.23
2018-04-23T03:38:45.540Z,31.23
2018-04-23T03:39:17.169Z,31.98
2018-04-23T03:39:48.794Z,32.10
2018-04-23T03:40:20.433Z,36.90
2018-04-23T03:40:52.047Z,36.97
2018-04-23T03:41:23.694Z,31.67
2018-04-23T03:41:55.339Z,34.08
2018-04-23T03:42:26.996Z,30.45
2018-04-23T03:42:58.607Z,36.97
2018-04-23T03:43:30.227Z,38.15
2018-04-23T03:44:01.866Z,33.80
2018-04-23T03:44:33.481Z,36.45
2018-04-23T03:45:05.185Z,34.17
2018-04-23T03:45:36.831Z,36.17
2018-04-23T03:46:08.458Z,39.60
2018-04-23T03:46:40.117Z,41.25
2018-04-23T03:47:11.737Z,35.50
2018-04-23T03:47:43.367Z,38.75
2018-04-23T03:48:14.992Z,35.42
2018-04-23T03:48:46.603Z,40.38
2018-04-23T03:49:18.216Z,38.22
2018-04-23T03:49:49.850Z,39.13
2018-04-23T03:50:21.497Z,31.92
2018-04-23T03:50:53.131Z,36.83
2018-04-23T03:51:24.763Z,37.10
2018-04-23T03:51:56.371Z,36.75
2018-04-23T03:52:27.975Z,37.55
2018-04-23T03:52:59.583Z,34.80
2018-04-23T03:53:31.211Z,39.10
2018-04-23T03:54:02.843Z,39.33
2018-04-23T03:54:34.473Z,37.70
2018-04-23T03:55:06.093Z,40.67
2018-04-23T03:55:37.703Z,34.97
2018-04-23T03:56:09.319Z,35.28
2018-04-23T03:56:40.925Z,42.85
2018-04-23T03:57:12.553Z,34.20
2018-04-23T03:57:44.195Z,40.50
2018-04-23T03:58:15.819Z,37.25
2018-04-23T03:58:47.451Z,39.97
2018-04-23T03:59:19.075Z,38.58
2018-04-23T03:59:50.685Z,46.55
2018-04-23T04:00:22.315Z,39.00
2018-04-23T04:00:53.939Z,35.42
2018-04-23T04:01:25.572Z,38.60
2018-04-23T04:01:57.204Z,39.97
2018-04-23T04:02:28.819Z,39.28
2018-04-23T04:03:00.452Z,38.88
2018-04-23T04:03:32.093Z,39.53
2018-04-23T04:04:03.771Z,39.30
2018-04-23T04:04:35.417Z,38.40
2018-04-23T04:05:07.727Z,39.65
2018-04-23T04:05:39.355Z,38.13
2018-04-23T04:06:10.976Z,43.13
2018-04-23T04:06:42.609Z,41.35
2018-04-23T04:07:14.263Z,39.03
2018-04-23T04:07:45.937Z,42.62
2018-04-23T04:08:17.563Z,36.05
2018-04-23T04:08:49.203Z,42.10
2018-04-23T04:09:20.839Z,47.78
2018-04-23T04:09:52.492Z,41.30
2018-04-23T04:10:24.124Z,38.25
2018-04-23T04:10:55.741Z,40.15
2018-04-23T04:11:27.327Z,41.08
2018-04-23T04:12:17.465Z,44.53
2018-04-23T04:13:07.740Z,41.20
2018-04-23T04:13:57.741Z,41.55
2018-04-23T04:14:48.091Z,43.80
2018-04-23T04:15:39.015Z,49.47
2018-04-23T04:16:29.175Z,48.87
2018-04-23T04:17:00.797Z,41.60
2018-04-23T04:18:59.386Z,43.85
2018-04-23T04:19:31.029Z,47.62
2018-04-23T04:20:02.970Z,41.90
2018-04-23T04:20:34.591Z,47.70
2018-04-23T04:21:06.202Z,46.00
2018-04-23T04:21:37.825Z,42.83
2018-04-23T04:22:09.447Z,47.30
2018-04-23T04:22:41.081Z,46.33
2018-04-23T04:23:12.723Z,46.15
2018-04-23T04:23:44.337Z,39.53
2018-04-23T04:24:15.952Z,41.33
2018-04-23T04:24:47.589Z,40.97
2018-04-23T04:25:19.279Z,50.17
2018-04-23T04:25:50.907Z,38.60
2018-04-23T04:26:22.520Z,44.08
2018-04-23T04:26:54.129Z,39.63
2018-04-23T04:27:25.759Z,43.05
2018-04-23T04:27:57.389Z,47.35
2018-04-23T04:28:29.041Z,37.70
2018-04-23T04:29:00.689Z,43.63
2018-04-23T04:29:32.309Z,37.03
2018-04-23T04:30:03.957Z,42.42
2018-04-23T04:30:35.593Z,41.42
2018-04-23T04:31:07.327Z,39.80
2018-04-23T04:31:38.949Z,39.35
2018-04-23T04:32:10.574Z,40.88
2018-04-23T04:32:42.219Z,40.67
2018-04-23T04:33:13.863Z,41.20
2018-04-23T04:33:45.497Z,40.72
2018-04-23T04:34:17.114Z,43.53
2018-04-23T04:34:48.729Z,39.30
2018-04-23T04:35:20.359Z,40.03
2018-04-23T04:35:51.971Z,36.90
2018-04-23T04:36:23.607Z,41.05
2018-04-23T04:36:55.241Z,42.17
2018-04-23T04:37:26.857Z,39.80
2018-04-23T04:37:58.489Z,33.60
2018-04-23T04:38:30.099Z,43.17
2018-04-23T04:39:01.726Z,48.50
2018-04-23T04:39:33.368Z,40.30
2018-04-23T04:40:04.973Z,36.60
2018-04-23T04:40:36.901Z,40.17
2018-04-23T04:41:08.537Z,38.15
2018-04-23T04:41:40.175Z,35.75
2018-04-23T04:42:11.809Z,36.05
2018-04-23T04:42:43.443Z,36.83
2018-04-23T04:43:15.116Z,35.10
2018-04-23T04:43:46.739Z,38.88
2018-04-23T04:44:18.356Z,36.15
2018-04-23T04:44:50.013Z,39.53
2018-04-23T04:45:21.670Z,35.10
2018-04-23T04:45:53.282Z,38.10
2018-04-23T04:46:24.923Z,40.92
2018-04-23T04:46:56.572Z,37.13
2018-04-23T04:47:28.220Z,36.83
2018-04-23T04:47:59.839Z,37.97
2018-04-23T04:48:31.463Z,41.70
2018-04-23T04:49:03.098Z,37.42
2018-04-23T04:49:34.727Z,41.53
2018-04-23T04:50:06.336Z,38.08
2018-04-23T04:50:37.943Z,36.22
2018-04-23T04:51:09.555Z,33.65
2018-04-23T04:51:41.192Z,39.05
2018-04-23T04:52:12.846Z,33.88
2018-04-23T04:52:44.464Z,37.13
2018-04-23T04:53:16.125Z,37.40
2018-04-23T04:53:47.757Z,32.75
2018-04-23T04:54:19.409Z,37.42
2018-04-23T04:54:51.046Z,33.35
2018-04-23T04:55:22.683Z,34.58
2018-04-23T04:55:54.307Z,39.83
2018-04-23T04:56:25.971Z,40.35
2018-04-23T04:56:57.623Z,36.47
2018-04-23T04:57:29.234Z,33.50
2018-04-23T04:58:00.855Z,31.55
2018-04-23T04:58:32.475Z,36.47
2018-04-23T04:59:04.117Z,34.65
2018-04-23T04:59:35.743Z,36.38
2018-04-23T05:00:07.395Z,42.55
2018-04-23T05:00:39.048Z,35.03
2018-04-23T05:01:10.681Z,33.75
2018-04-23T05:01:42.319Z,37.33
2018-04-23T05:02:14.807Z,32.97
2018-04-23T05:02:46.443Z,35.05
2018-04-23T05:03:18.069Z,35.05
2018-04-23T05:03:49.705Z,34.70
2018-04-23T05:04:21.312Z,33.22
2018-04-23T05:04:52.935Z,35.72
2018-04-23T05:05:24.551Z,37.42
2018-04-23T05:05:56.184Z,34.67
2018-04-23T05:06:27.789Z,32.03
2018-04-23T05:06:59.419Z,29.85
2018-04-23T05:07:31.027Z,33.30
2018-04-23T05:08:02.661Z,35.95
2018-04-23T05:08:34.285Z,29.20
2018-04-23T05:09:05.928Z,35.50
2018-04-23T05:09:37.563Z,32.65
2018-04-23T05:10:09.227Z,31.73
2018-04-23T05:10:40.860Z,35.55
2018-04-23T05:11:12.493Z,34.28
2018-04-23T05:11:44.131Z,33.97
2018-04-23T05:12:16.033Z,29.58
2018-04-23T05:12:47.643Z,32.83
2018-04-23T05:13:19.293Z,29.25
2018-04-23T05:13:50.914Z,29.15
2018-04-23T05:14:22.533Z,27.98
2018-04-23T05:14:54.159Z,31.27
2018-04-23T05:15:25.777Z,31.65
2018-04-23T05:15:57.447Z,29.40
2018-04-23T05:16:29.863Z,25.95
2018-04-23T05:17:01.477Z,29.45
2018-04-23T05:17:33.114Z,28.20
2018-04-23T05:18:04.776Z,28.48
2018-04-23T05:18:36.395Z,25.40
2018-04-23T05:19:08.019Z,28.15
2018-04-23T05:19:39.682Z,26.98
2018-04-23T05:20:11.311Z,25.35
2018-04-23T05:20:42.947Z,30.50
2018-04-23T05:21:14.635Z,25.05
2018-04-23T05:21:46.291Z,29.70
2018-04-23T05:22:17.943Z,23.58
2018-04-23T05:22:49.581Z,28.85
2018-04-23T05:23:21.223Z,26.33
2018-04-23T05:23:52.989Z,22.87
2018-04-23T05:24:24.579Z,23.67
2018-04-23T05:24:56.199Z,26.33
2018-04-23T05:25:27.833Z,28.58
2018-04-23T05:25:59.471Z,25.77
2018-04-23T05:26:31.081Z,23.67
2018-04-23T05:27:03.443Z,21.62
2018-04-23T05:27:35.070Z,28.48
2018-04-23T05:28:06.691Z,23.75
2018-04-23T05:28:38.321Z,23.15
2018-04-23T05:29:09.948Z,21.05
2018-04-23T05:29:41.575Z,25.77
2018-04-23T05:30:13.198Z,28.92
2018-04-23T05:30:44.828Z,24.27
2018-04-23T05:31:16.515Z,19.10
2018-04-23T05:31:48.151Z,24.10
2018-04-23T05:32:19.773Z,23.30
2018-04-23T05:32:51.402Z,28.27
2018-04-23T05:33:23.019Z,20.45
2018-04-23T05:33:54.645Z,21.58
2018-04-23T05:34:26.259Z,21.20
2018-04-23T05:34:57.911Z,20.17
2018-04-23T05:35:29.539Z,19.83
2018-04-23T05:36:01.149Z,20.77
2018-04-23T05:36:32.761Z,20.88
2018-04-23T05:37:04.405Z,22.92
2018-04-23T05:37:36.061Z,20.77
2018-04-23T05:38:07.680Z,20.98
2018-04-23T05:38:39.289Z,18.30
2018-04-23T05:39:10.920Z,18.42
2018-04-23T05:39:42.553Z,19.17
2018-04-23T05:40:14.172Z,17.80
2018-04-23T05:40:45.793Z,16.48
2018-04-23T05:41:17.432Z,17.17
2018-04-23T05:41:49.047Z,17.10
2018-04-23T05:42:20.675Z,20.30
2018-04-23T05:42:52.341Z,18.55
2018-04-23T05:43:23.961Z,19.65
2018-04-23T05:43:55.583Z,17.35
2018-04-23T05:44:27.212Z,17.45
2018-04-23T05:44:58.849Z,15.98
2018-04-23T05:45:30.531Z,15.32
2018-04-23T05:46:02.179Z,16.55
2018-04-23T05:46:33.811Z,21.33
2018-04-23T05:47:05.479Z,13.38
2018-04-23T05:47:37.132Z,22.50
2018-04-23T05:48:08.770Z,20.27
2018-04-23T05:48:40.419Z,15.55
2018-04-23T05:49:12.167Z,16.50
2018-04-23T05:49:43.805Z,15.43
2018-04-23T05:50:15.429Z,19.98
2018-04-23T05:50:47.044Z,15.77
2018-04-23T05:51:18.675Z,18.15
2018-04-23T05:51:50.304Z,14.90
2018-04-23T05:52:21.945Z,17.23
2018-04-23T05:52:53.885Z,17.35
2018-04-23T05:53:25.527Z,18.15
2018-04-23T05:53:57.159Z,18.35
2018-04-23T05:54:29.822Z,16.40
2018-04-23T05:55:01.454Z,18.25
2018-04-23T05:55:33.083Z,20.20
2018-04-23T05:56:04.711Z,16.62
2018-04-23T05:56:36.355Z,18.48
2018-04-23T05:57:07.958Z,16.83
2018-04-23T05:57:39.592Z,27.55
2018-04-23T05:58:11.225Z,16.98
2018-04-23T05:58:42.840Z,20.80
2018-04-23T05:59:14.467Z,17.27
2018-04-23T05:59:46.121Z,17.17
2018-04-23T06:00:17.759Z,17.75
2018-04-23T06:00:49.390Z,15.75
2018-04-23T06:01:21.010Z,15.10
2018-04-23T06:01:52.625Z,16.23
2018-04-23T06:02:24.268Z,17.17
2018-04-23T06:02:55.888Z,20.73
2018-04-23T06:03:27.552Z,15.73
2018-04-23T06:03:59.207Z,16.17
2018-04-23T06:04:30.828Z,15.38
2018-04-23T06:05:02.471Z,13.55
2018-04-23T06:05:34.104Z,15.25
2018-04-23T06:06:05.752Z,16.45
2018-04-23T06:06:37.380Z,17.40
2018-04-23T06:07:09.010Z,13.90
2018-04-23T06:07:40.630Z,16.67
2018-04-23T06:08:12.278Z,15.80
2018-04-23T06:08:43.971Z,15.57
2018-04-23T06:09:15.575Z,13.82
2018-04-23T06:09:47.218Z,15.52
2018-04-23T06:10:18.822Z,16.52
2018-04-23T06:10:50.443Z,16.10
2018-04-23T06:11:22.080Z,15.65
2018-04-23T06:11:53.732Z,16.83
2018-04-23T06:12:25.432Z,15.88
2018-04-23T06:12:57.054Z,14.77
2018-04-23T06:13:28.692Z,13.82
2018-04-23T06:14:00.317Z,13.55
2018-04-23T06:14:31.949Z,17.00
2018-04-23T06:15:03.622Z,16.35
2018-04-23T06:15:35.259Z,12.80
2018-04-23T06:16:06.904Z,12.60
2018-04-23T06:16:38.769Z,11.45
2018-04-23T06:17:10.419Z,14.90
2018-04-23T06:17:42.061Z,13.27
2018-04-23T06:18:13.680Z,12.85
2018-04-23T06:18:45.297Z,13.52
2018-04-23T06:19:16.949Z,14.38
2018-04-23T06:19:48.579Z,14.35
2018-04-23T06:20:20.213Z,11.68
2018-04-23T06:20:51.838Z,14.40
2018-04-23T06:21:23.440Z,13.35
2018-04-23T06:21:55.063Z,14.65
2018-04-23T06:22:26.701Z,12.05
2018-04-23T06:22:58.338Z,13.07
2018-04-23T06:23:29.963Z,14.10
2018-04-23T06:24:01.596Z,13.15
2018-04-23T06:24:33.251Z,13.43
2018-04-23T06:25:04.879Z,12.27
2018-04-23T06:25:36.537Z,10.50
2018-04-23T06:26:08.187Z,14.60
2018-04-23T06:26:39.829Z,13.73
2018-04-23T06:27:11.435Z,11.20
2018-04-23T06:27:43.059Z,12.55
2018-04-23T06:28:14.715Z,12.32
2018-04-23T06:28:46.323Z,9.30
2018-04-23T06:29:17.958Z,11.48
2018-04-23T06:29:49.591Z,11.48
2018-04-23T06:30:21.217Z,12.43
2018-04-23T06:30:52.905Z,9.23
2018-04-23T06:31:24.504Z,10.23
2018-04-23T06:31:56.130Z,10.32
2018-04-23T06:32:27.753Z,9.98
2018-04-23T06:32:59.369Z,13.32
2018-04-23T06:33:31.008Z,10.98
2018-04-23T06:34:02.631Z,12.20
2018-04-23T06:34:34.243Z,9.98
2018-04-23T06:35:05.883Z,11.40
2018-04-23T06:35:37.499Z,12.57
2018-04-23T06:36:09.108Z,11.90
2018-04-23T06:36:40.738Z,10.77
2018-04-23T06:37:12.367Z,8.00
2018-04-23T06:37:44.004Z,11.50
2018-04-23T06:38:15.629Z,10.10
2018-04-23T06:38:47.247Z,8.82
2018-04-23T06:39:18.890Z,13.20
2018-04-23T06:39:50.502Z,10.15
2018-04-23T06:40:22.177Z,9.13
2018-04-23T06:40:53.759Z,9.30
2018-04-23T06:41:25.380Z,9.77
2018-04-23T06:41:56.988Z,9.65
2018-04-23T06:42:28.583Z,8.27
2018-04-23T06:43:00.203Z,9.57
2018-04-23T06:43:31.811Z,10.75
2018-04-23T06:44:03.439Z,8.63
2018-04-23T06:44:35.100Z,11.55
2018-04-23T06:45:06.726Z,10.25
2018-04-23T06:45:38.397Z,8.98
2018-04-23T06:46:10.089Z,11.48
2018-04-23T06:46:41.673Z,11.32
2018-04-23T06:47:13.321Z,10.15
2018-04-23T06:47:44.941Z,13.25
2018-04-23T06:48:16.564Z,7.05
2018-04-23T06:48:48.177Z,7.57
2018-04-23T06:49:19.780Z,6.82
2018-04-23T06:49:51.392Z,7.97
2018-04-23T06:50:23.015Z,7.10
2018-04-23T06:50:54.627Z,9.73
2018-04-23T06:51:26.247Z,10.63
2018-04-23T06:51:57.861Z,8.75
2018-04-23T06:52:29.485Z,7.47
2018-04-23T06:53:01.105Z,8.68
2018-04-23T06:53:32.717Z,8.23
2018-04-23T06:54:04.336Z,8.70
2018-04-23T06:54:35.928Z,11.85
2018-04-23T06:55:07.546Z,9.35
2018-04-23T06:55:39.152Z,8.15
2018-04-23T06:56:10.795Z,8.98
2018-04-23T06:56:42.457Z,9.32
2018-04-23T06:57:14.067Z,7.45
2018-04-23T06:57:45.723Z,6.70
2018-04-23T06:58:17.337Z,8.80
2018-04-23T06:58:48.968Z,7.32
2018-04-23T06:59:20.631Z,7.35
2018-04-23T06:59:52.243Z,9.77
2018-04-23T07:00:23.883Z,8.18
2018-04-23T07:00:55.514Z,10.00
2018-04-23T07:01:27.152Z,8.43